createdAt,value
2019-06-01T00:02:24.096Z,5.85
2019-06-01T00:04:54.937Z,7.05
2019-06-01T00:07:25.940Z,6.78
2019-06-01T00:09:57.119Z,6.95
2019-06-01T00:12:27.988Z,6.22
2019-06-01T00:14:58.855Z,6.95
2019-06-01T00:17:32.367Z,7.33
2019-06-01T00:20:12.359Z,6.75
2019-06-01T00:22:41.225Z,6.33
2019-06-01T00:25:12.115Z,7.60
2019-06-01T00:27:43.036Z,7.17
2019-06-01T00:30:26.174Z,7.45
2019-06-01T00:32:47.205Z,8.23
2019-06-01T00:35:18.366Z,7.87
2019-06-01T00:37:50.183Z,8.20
2019-06-01T00:40:21.048Z,7.97
2019-06-01T00:42:52.482Z,7.12
2019-06-01T00:45:23.493Z,6.87
2019-06-01T00:47:54.380Z,7.80
2019-06-01T00:50:27.058Z,7.58
2019-06-01T00:52:59.364Z,6.92
2019-06-01T00:55:30.227Z,7.30
2019-06-01T00:58:01.027Z,6.40
2019-06-01T01:00:43.143Z,7.80
2019-06-01T01:03:04.282Z,6.87
2019-06-01T01:05:35.222Z,7.65
2019-06-01T01:08:06.135Z,7.55
2019-06-01T01:10:37.296Z,7.60
2019-06-01T01:13:09.622Z,7.95
2019-06-01T01:15:41.046Z,8.08
2019-06-01T01:18:11.994Z,7.60
2019-06-01T01:20:43.423Z,6.90
2019-06-01T01:23:14.318Z,6.65
2019-06-01T01:25:46.281Z,6.05
2019-06-01T01:28:18.728Z,6.20
2019-06-01T01:31:02.672Z,6.05
2019-06-01T01:33:21.914Z,6.33
2019-06-01T01:35:54.091Z,6.72
2019-06-01T01:38:44.088Z,7.37
2019-06-01T01:41:14.993Z,6.37
2019-06-01T01:43:46.052Z,6.22
2019-06-01T01:46:17.168Z,6.55
2019-06-01T01:48:48.063Z,6.42
2019-06-01T01:51:19.188Z,6.20
2019-06-01T01:53:50.565Z,6.03
2019-06-01T01:56:21.550Z,6.92
2019-06-01T01:58:52.650Z,6.33
2019-06-01T02:01:23.457Z,6.58
2019-06-01T02:03:55.500Z,6.83
2019-06-01T02:06:29.026Z,6.55
2019-06-01T02:08:59.359Z,6.30
2019-06-01T02:11:51.368Z,5.75
2019-06-01T02:14:22.405Z,7.53
2019-06-01T02:16:53.939Z,6.40
2019-06-01T02:19:25.158Z,6.62
2019-06-01T02:21:56.471Z,6.47
2019-06-01T02:24:28.730Z,6.90
2019-06-01T02:27:01.145Z,6.47
2019-06-01T02:29:32.458Z,6.47
2019-06-01T02:32:04.749Z,6.67
2019-06-01T02:34:35.398Z,6.75
2019-06-01T02:37:06.086Z,6.35
2019-06-01T02:39:37.139Z,6.47
2019-06-01T02:42:09.365Z,6.65
2019-06-01T02:44:40.272Z,6.35
2019-06-01T02:47:10.988Z,6.37
2019-06-01T02:49:43.083Z,6.65
2019-06-01T02:52:14.158Z,6.78
2019-06-01T02:54:44.955Z,6.33
2019-06-01T02:57:15.931Z,6.37
2019-06-01T02:59:46.935Z,6.05
2019-06-01T03:02:18.131Z,5.60
2019-06-01T03:04:48.979Z,5.17
2019-06-01T03:07:19.986Z,6.03
2019-06-01T03:09:52.044Z,6.25
2019-06-01T03:12:22.837Z,6.30
2019-06-01T03:14:54.148Z,6.05
2019-06-01T03:17:27.228Z,5.47
2019-06-01T03:19:59.530Z,5.67
2019-06-01T03:22:30.737Z,6.10
2019-06-01T03:25:02.154Z,5.25
2019-06-01T03:27:33.336Z,5.60
2019-06-01T03:30:06.839Z,5.08
2019-06-01T03:32:37.944Z,5.42
2019-06-01T03:35:08.963Z,5.58
2019-06-01T03:37:39.994Z,5.60
2019-06-01T03:40:19.694Z,5.92
2019-06-01T03:42:43.342Z,5.70
2019-06-01T03:45:14.467Z,4.85
2019-06-01T03:47:45.763Z,5.12
2019-06-01T03:50:16.499Z,5.90
2019-06-01T03:52:47.385Z,4.92
2019-06-01T03:55:18.063Z,5.45
2019-06-01T03:57:48.881Z,5.12
2019-06-01T04:00:19.866Z,5.17
2019-06-01T04:02:51.023Z,5.12
2019-06-01T04:05:21.783Z,5.65
2019-06-01T04:07:53.575Z,5.22
2019-06-01T04:10:24.585Z,4.95
2019-06-01T04:12:55.697Z,4.60
2019-06-01T04:15:26.632Z,4.45
2019-06-01T04:17:57.556Z,4.58
2019-06-01T04:20:28.522Z,4.22
2019-06-01T04:22:59.816Z,4.70
2019-06-01T04:25:31.924Z,4.72
2019-06-01T04:28:03.917Z,4.72
2019-06-01T04:30:36.447Z,4.92
2019-06-01T04:33:08.892Z,4.90
2019-06-01T04:35:40.133Z,4.53
2019-06-01T04:38:11.258Z,4.08
2019-06-01T04:40:42.448Z,4.42
2019-06-01T04:43:14.197Z,4.42
2019-06-01T04:45:45.442Z,4.33
2019-06-01T04:48:16.411Z,3.98
2019-06-01T04:50:47.331Z,4.30
2019-06-01T04:53:18.192Z,4.03
2019-06-01T04:55:49.126Z,4.53
2019-06-01T04:58:20.155Z,5.25
2019-06-01T05:00:50.949Z,4.40
2019-06-01T05:03:22.058Z,5.20
2019-06-01T05:05:53.029Z,4.72
2019-06-01T05:08:24.069Z,5.03
2019-06-01T05:10:54.754Z,4.17
2019-06-01T05:13:25.596Z,4.10
2019-06-01T05:15:56.723Z,4.40
2019-06-01T05:18:27.904Z,3.60
2019-06-01T05:20:59.017Z,4.20
2019-06-01T05:23:30.269Z,3.58
2019-06-01T05:26:01.150Z,4.05
2019-06-01T05:28:32.324Z,3.87
2019-06-01T05:31:04.769Z,4.05
2019-06-01T05:33:37.666Z,3.67
2019-06-01T05:36:26.875Z,3.42
2019-06-01T05:38:58.553Z,3.77
2019-06-01T05:41:29.487Z,3.33
2019-06-01T05:44:00.435Z,3.75
2019-06-01T05:46:32.161Z,3.62
2019-06-01T05:49:04.141Z,4.08
2019-06-01T05:51:34.989Z,3.80
2019-06-01T05:54:05.782Z,3.75
2019-06-01T05:56:36.666Z,3.15
2019-06-01T05:59:07.437Z,3.67
2019-06-01T06:01:38.232Z,3.92
2019-06-01T06:04:09.055Z,3.30
2019-06-01T06:06:39.921Z,2.90
2019-06-01T06:09:11.343Z,3.62
2019-06-01T06:11:42.624Z,4.23
2019-06-01T06:14:13.763Z,2.87
2019-06-01T06:16:45.022Z,3.62
2019-06-01T06:19:20.271Z,3.60
2019-06-01T06:21:48.357Z,3.85
2019-06-01T06:24:20.518Z,4.10
2019-06-01T06:26:51.534Z,3.85
2019-06-01T06:29:22.954Z,3.92
2019-06-01T06:31:55.164Z,3.83
2019-06-01T06:34:26.179Z,3.80
2019-06-01T06:36:57.106Z,3.33
2019-06-01T06:39:27.960Z,3.35
2019-06-01T06:41:58.692Z,2.83
2019-06-01T06:44:29.738Z,3.40
2019-06-01T06:47:00.702Z,2.87
2019-06-01T06:49:31.496Z,3.25
2019-06-01T06:52:02.722Z,3.10
2019-06-01T06:54:33.752Z,3.10
2019-06-01T06:57:04.630Z,3.17
2019-06-01T06:59:35.664Z,2.90
2019-06-01T07:02:06.700Z,3.58
2019-06-01T07:04:37.720Z,2.92
2019-06-01T07:07:08.621Z,3.10
2019-06-01T07:09:39.939Z,3.47
2019-06-01T07:12:10.747Z,2.70
2019-06-01T07:14:41.798Z,3.15
2019-06-01T07:17:15.578Z,2.50
2019-06-01T07:19:45.056Z,3.12
2019-06-01T07:22:17.052Z,2.62
2019-06-01T07:24:48.591Z,2.65
2019-06-01T07:27:19.910Z,3.42
2019-06-01T07:29:50.958Z,2.55
2019-06-01T07:32:24.636Z,3.15
2019-06-01T07:34:55.365Z,3.40
2019-06-01T07:37:26.454Z,2.95
2019-06-01T07:39:57.446Z,2.75
2019-06-01T07:42:29.412Z,3.02
2019-06-01T07:45:00.419Z,3.20
2019-06-01T07:47:31.307Z,2.80
2019-06-01T07:50:02.216Z,2.65
2019-06-01T07:52:33.222Z,2.58
2019-06-01T07:55:04.130Z,2.87
2019-06-01T07:57:35.114Z,3.33
2019-06-01T08:00:07.917Z,2.90
2019-06-01T08:02:39.021Z,3.33
2019-06-01T08:05:09.999Z,2.80
2019-06-01T08:07:40.986Z,2.25
2019-06-01T08:10:12.019Z,2.42
2019-06-01T08:12:42.768Z,2.90
2019-06-01T08:15:14.800Z,2.72
2019-06-01T08:17:45.752Z,2.80
2019-06-01T08:20:16.688Z,3.05
2019-06-01T08:22:47.520Z,2.70
2019-06-01T08:25:18.839Z,2.77
2019-06-01T08:27:49.709Z,3.80
2019-06-01T08:30:20.737Z,2.83
2019-06-01T08:32:53.002Z,3.00
2019-06-01T08:35:24.854Z,3.17
2019-06-01T08:37:55.691Z,3.13
2019-06-01T08:40:27.382Z,2.52
2019-06-01T08:42:58.528Z,3.43
2019-06-01T08:45:29.687Z,3.05
2019-06-01T08:48:00.848Z,3.30
2019-06-01T08:50:31.912Z,3.12
2019-06-01T08:53:02.862Z,2.92
2019-06-01T08:55:34.454Z,2.95
2019-06-01T08:58:05.263Z,2.92
2019-06-01T09:00:36.198Z,3.17
2019-06-01T09:03:07.141Z,3.35
2019-06-01T09:05:38.156Z,3.15
2019-06-01T09:08:09.123Z,3.85
2019-06-01T09:10:39.889Z,5.33
2019-06-01T09:13:31.263Z,9.50
2019-06-01T09:16:02.332Z,8.80
2019-06-01T09:18:33.707Z,8.45
2019-06-01T09:21:04.705Z,7.87
2019-06-01T09:23:37.471Z,9.05
2019-06-01T09:26:09.079Z,8.63
2019-06-01T09:28:39.986Z,8.30
2019-06-01T09:31:10.617Z,8.28
2019-06-01T09:33:42.802Z,7.62
2019-06-01T09:36:13.780Z,7.42
2019-06-01T09:38:44.627Z,8.30
2019-06-01T09:41:15.360Z,7.85
2019-06-01T09:43:46.306Z,8.40
2019-06-01T09:46:17.602Z,7.72
2019-06-01T09:48:48.601Z,7.30
2019-06-01T09:51:19.643Z,7.67
2019-06-01T09:53:50.535Z,8.20
2019-06-01T09:56:21.485Z,8.33
2019-06-01T09:58:52.434Z,8.50
2019-06-01T10:01:23.618Z,8.28
2019-06-01T10:03:54.571Z,8.80
2019-06-01T10:06:25.432Z,7.83
2019-06-01T10:08:56.100Z,10.72
2019-06-01T10:11:26.830Z,7.00
2019-06-01T10:13:57.565Z,7.53
2019-06-01T10:16:28.352Z,8.05
2019-06-01T10:18:59.280Z,8.05
2019-06-01T10:21:30.205Z,8.25
2019-06-01T10:24:01.541Z,9.28
2019-06-01T10:26:33.997Z,8.43
2019-06-01T10:29:04.806Z,8.58
2019-06-01T10:31:39.699Z,7.97
2019-06-01T10:34:09.272Z,7.85
2019-06-01T10:36:40.298Z,8.53
2019-06-01T10:39:11.176Z,8.98
2019-06-01T10:41:41.903Z,8.75
2019-06-01T10:44:12.846Z,8.70
2019-06-01T10:46:43.879Z,8.88
2019-06-01T10:49:14.772Z,9.60
2019-06-01T10:51:45.650Z,9.23
2019-06-01T10:54:16.453Z,9.55
2019-06-01T10:56:47.422Z,9.25
2019-06-01T10:59:18.239Z,9.58
2019-06-01T11:01:49.076Z,9.35
2019-06-01T11:04:20.371Z,10.05
2019-06-01T11:06:51.651Z,9.60
2019-06-01T11:09:22.670Z,9.23
2019-06-01T11:11:53.819Z,9.65
2019-06-01T11:14:24.988Z,9.88
2019-06-01T11:16:56.690Z,9.38
2019-06-01T11:19:49.075Z,9.30
2019-06-01T11:22:20.054Z,8.25
2019-06-01T11:24:50.697Z,8.40
2019-06-01T11:27:21.841Z,7.95
2019-06-01T11:29:52.570Z,8.10
2019-06-01T11:32:23.674Z,7.55
2019-06-01T11:34:55.818Z,7.72
2019-06-01T11:37:26.670Z,7.92
2019-06-01T11:39:57.335Z,7.22
2019-06-01T11:42:28.042Z,6.92
2019-06-01T11:44:58.778Z,6.87
2019-06-01T11:47:29.591Z,8.23
2019-06-01T11:50:00.180Z,8.33
2019-06-01T11:52:31.139Z,7.17
2019-06-01T11:55:01.805Z,7.25
2019-06-01T11:57:32.512Z,6.30
2019-06-01T12:00:03.643Z,6.83
2019-06-01T12:02:35.412Z,6.55
2019-06-01T12:05:08.496Z,5.40
2019-06-01T12:10:09.265Z,5.03
2019-06-01T12:12:40.367Z,5.20
2019-06-01T12:15:11.271Z,4.40
2019-06-01T12:17:43.189Z,5.03
2019-06-01T12:20:14.025Z,4.90
2019-06-01T12:22:47.106Z,4.42
2019-06-01T12:25:18.388Z,4.05
2019-06-01T12:27:49.367Z,3.87
2019-06-01T12:30:20.604Z,4.60
2019-06-01T12:32:51.355Z,4.55
2019-06-01T12:35:23.408Z,3.87
2019-06-01T12:38:05.697Z,5.05
2019-06-01T12:40:26.207Z,4.42
2019-06-01T12:42:56.912Z,4.53
2019-06-01T12:45:27.625Z,4.75
2019-06-01T12:47:58.746Z,5.47
2019-06-01T12:50:29.637Z,4.62
2019-06-01T12:53:00.269Z,4.90
2019-06-01T12:55:31.165Z,4.67
2019-06-01T12:58:02.155Z,4.40
2019-06-01T13:00:33.239Z,4.22
2019-06-01T13:03:07.853Z,4.92
2019-06-01T13:05:36.595Z,5.90
2019-06-01T13:08:08.372Z,4.87
2019-06-01T13:10:38.999Z,4.97
2019-06-01T13:13:09.820Z,5.33
2019-06-01T13:15:41.188Z,5.05
2019-06-01T13:18:11.982Z,5.80
2019-06-01T13:20:43.287Z,5.12
2019-06-01T13:23:14.192Z,5.47
2019-06-01T13:25:45.623Z,4.53
2019-06-01T13:28:17.100Z,4.75
2019-06-01T13:30:49.253Z,5.60
2019-06-01T13:33:20.259Z,5.40
2019-06-01T13:35:52.645Z,5.20
2019-06-01T13:38:23.377Z,5.50
2019-06-01T13:40:54.317Z,5.50
2019-06-01T13:43:25.241Z,6.22
2019-06-01T13:45:55.917Z,6.78
2019-06-01T13:48:26.736Z,6.40
2019-06-01T13:50:57.388Z,13.15
2019-06-01T13:53:28.065Z,7.30
2019-06-01T13:55:58.734Z,7.35
2019-06-01T13:58:29.439Z,6.40
2019-06-01T14:01:00.200Z,5.37
2019-06-01T14:03:30.916Z,5.97
2019-06-01T14:06:01.677Z,5.80
2019-06-01T14:08:32.319Z,6.67
2019-06-01T14:11:02.980Z,6.30
2019-06-01T14:13:33.655Z,6.85
2019-06-01T14:16:04.533Z,7.65
2019-06-01T14:18:35.254Z,7.87
2019-06-01T14:21:05.989Z,9.05
2019-06-01T14:23:36.721Z,8.80
2019-06-01T14:26:07.802Z,7.65
2019-06-01T14:28:38.894Z,6.75
2019-06-01T14:31:10.502Z,6.45
2019-06-01T14:33:41.271Z,7.37
2019-06-01T14:36:13.259Z,7.15
2019-06-01T14:38:47.745Z,7.87
2019-06-01T14:41:16.158Z,7.20
2019-06-01T14:43:46.928Z,6.25
2019-06-01T14:46:17.720Z,5.28
2019-06-01T14:48:49.368Z,5.35
2019-06-01T14:51:20.155Z,4.97
2019-06-01T14:53:51.644Z,5.83
2019-06-01T14:56:22.521Z,4.95
2019-06-01T14:58:53.961Z,5.03
2019-06-01T15:01:32.401Z,5.35
2019-06-01T15:03:58.347Z,4.35
2019-06-01T15:06:29.669Z,3.50
2019-06-01T15:09:17.079Z,3.42
2019-06-01T15:11:36.135Z,2.92
2019-06-01T15:14:09.034Z,2.95
2019-06-01T15:19:09.859Z,3.10
2019-06-01T15:21:40.984Z,3.05
2019-06-01T15:24:12.020Z,3.37
2019-06-01T15:26:43.061Z,2.85
2019-06-01T15:29:14.235Z,3.27
2019-06-01T15:31:45.024Z,2.72
2019-06-01T15:34:18.460Z,2.80
2019-06-01T15:36:51.575Z,3.02
2019-06-01T15:39:25.112Z,3.37
2019-06-01T15:41:55.183Z,3.55
2019-06-01T15:44:26.154Z,3.02
2019-06-01T15:46:57.727Z,3.75
2019-06-01T15:49:29.424Z,3.80
2019-06-01T15:52:00.182Z,4.12
2019-06-01T15:54:30.883Z,4.33
2019-06-01T15:57:02.586Z,4.00
2019-06-01T15:59:33.466Z,4.17
2019-06-01T16:02:04.140Z,3.40
2019-06-01T16:04:34.779Z,4.05
2019-06-01T16:07:05.456Z,4.22
2019-06-01T16:09:42.500Z,3.62
2019-06-01T16:12:08.190Z,4.37
2019-06-01T16:14:38.929Z,4.10
2019-06-01T16:17:09.592Z,3.67
2019-06-01T16:19:40.261Z,3.62
2019-06-01T16:22:10.921Z,4.08
2019-06-01T16:24:41.613Z,4.53
2019-06-01T16:27:12.452Z,5.20
2019-06-01T16:29:43.694Z,5.33
2019-06-01T16:32:14.433Z,5.50
2019-06-01T16:34:45.167Z,4.75
2019-06-01T16:37:17.202Z,5.05
2019-06-01T16:39:58.744Z,5.47
2019-06-01T16:42:19.868Z,5.73
2019-06-01T16:44:50.525Z,5.42
2019-06-01T16:47:21.202Z,5.80
2019-06-01T16:49:51.975Z,6.22
2019-06-01T16:52:22.641Z,6.65
2019-06-01T16:54:53.296Z,6.80
2019-06-01T16:57:23.975Z,6.87
2019-06-01T16:59:56.245Z,7.03
2019-06-01T17:02:27.029Z,6.67
2019-06-01T17:04:58.550Z,7.00
2019-06-01T17:07:29.376Z,7.58
2019-06-01T17:10:18.421Z,7.35
2019-06-01T17:12:32.410Z,7.10
2019-06-01T17:15:03.258Z,6.60
2019-06-01T17:17:34.079Z,7.42
2019-06-01T17:20:07.267Z,6.97
2019-06-01T17:22:38.139Z,7.45
2019-06-01T17:25:08.780Z,7.00
2019-06-01T17:27:39.415Z,7.30
2019-06-01T17:30:12.079Z,7.05
2019-06-01T17:32:42.512Z,6.87
2019-06-01T17:35:13.222Z,6.72
2019-06-01T17:37:45.107Z,6.70
2019-06-01T17:40:15.906Z,6.85
2019-06-01T17:42:46.612Z,7.15
2019-06-01T17:45:17.363Z,6.50
2019-06-01T17:47:48.050Z,7.28
2019-06-01T17:50:20.062Z,6.20
2019-06-01T17:52:50.840Z,6.85
2019-06-01T17:55:24.121Z,6.70
2019-06-01T17:57:54.751Z,7.00
2019-06-01T18:00:25.537Z,7.30
2019-06-01T18:02:56.492Z,7.12
2019-06-01T18:05:27.200Z,7.28
2019-06-01T18:07:57.915Z,6.00
2019-06-01T18:10:28.574Z,5.97
2019-06-01T18:12:59.194Z,6.75
2019-06-01T18:15:29.853Z,6.70
2019-06-01T18:18:00.572Z,6.42
2019-06-01T18:20:31.246Z,6.35
2019-06-01T18:23:02.348Z,6.53
2019-06-01T18:25:33.081Z,6.62
2019-06-01T18:28:04.504Z,6.80
2019-06-01T18:30:35.625Z,6.87
2019-06-01T18:33:07.119Z,6.30
2019-06-01T18:35:37.971Z,6.85
2019-06-01T18:38:09.829Z,7.20
2019-06-01T18:40:40.633Z,6.90
2019-06-01T18:43:14.316Z,6.67
2019-06-01T18:45:46.214Z,6.70
2019-06-01T18:48:17.485Z,6.97
2019-06-01T18:50:48.144Z,6.42
2019-06-01T18:53:18.962Z,6.25
2019-06-01T18:55:49.739Z,7.83
2019-06-01T18:58:20.430Z,7.70
2019-06-01T19:00:51.180Z,7.17
2019-06-01T19:03:21.866Z,7.65
2019-06-01T19:05:52.495Z,8.28
2019-06-01T19:08:23.165Z,7.37
2019-06-01T19:10:54.016Z,7.90
2019-06-01T19:13:24.724Z,7.00
2019-06-01T19:15:55.367Z,7.55
2019-06-01T19:18:26.157Z,6.95
2019-06-01T19:20:56.857Z,7.53
2019-06-01T19:23:27.614Z,6.67
2019-06-01T19:25:59.755Z,7.17
2019-06-01T19:28:30.397Z,7.53
2019-06-01T19:31:01.830Z,7.95
2019-06-01T19:33:32.846Z,7.17
2019-06-01T19:36:03.550Z,7.67
2019-06-01T19:38:35.939Z,7.28
2019-06-01T19:41:07.420Z,7.40
2019-06-01T19:43:38.186Z,7.78
2019-06-01T19:46:09.686Z,6.87
2019-06-01T19:48:40.448Z,7.37
2019-06-01T19:51:12.377Z,6.72
2019-06-01T19:53:43.196Z,7.15
2019-06-01T19:56:14.985Z,7.20
2019-06-01T19:58:45.715Z,6.60
2019-06-01T20:01:16.421Z,7.37
2019-06-01T20:03:47.129Z,7.58
2019-06-01T20:06:18.902Z,7.40
2019-06-01T20:08:49.777Z,7.12
2019-06-01T20:11:21.290Z,7.50
2019-06-01T20:13:52.026Z,6.78
2019-06-01T20:16:22.941Z,9.78
2019-06-01T20:18:53.680Z,8.00
2019-06-01T20:21:24.469Z,7.30
2019-06-01T20:23:55.469Z,6.75
2019-06-01T20:26:38.962Z,6.90
2019-06-01T20:28:58.352Z,7.23
2019-06-01T20:31:29.479Z,7.45
2019-06-01T20:34:00.254Z,7.45
2019-06-01T20:36:30.938Z,7.67
2019-06-01T20:39:04.418Z,8.78
2019-06-01T20:41:35.393Z,7.55
2019-06-01T20:44:06.094Z,8.93
2019-06-01T20:46:36.904Z,8.90
2019-06-01T20:49:07.566Z,8.73
2019-06-01T20:51:38.198Z,7.60
2019-06-01T20:54:08.930Z,7.72
2019-06-01T20:56:39.694Z,8.58
2019-06-01T20:59:10.527Z,8.63
2019-06-01T21:01:41.198Z,8.60
2019-06-01T21:04:11.971Z,7.45
2019-06-01T21:06:42.801Z,8.65
2019-06-01T21:09:13.712Z,8.53
2019-06-01T21:11:44.421Z,7.35
2019-06-01T21:14:15.912Z,7.17
2019-06-01T21:16:46.745Z,7.65
2019-06-01T21:19:18.142Z,7.28
2019-06-01T21:21:48.922Z,7.42
2019-06-01T21:24:20.993Z,7.97
2019-06-01T21:26:51.925Z,7.63
2019-06-01T21:29:22.990Z,7.17
2019-06-01T21:31:53.879Z,7.58
2019-06-01T21:34:25.460Z,7.40
2019-06-01T21:36:56.250Z,8.08
2019-06-01T21:39:28.223Z,6.87
2019-06-01T21:41:59.027Z,7.25
2019-06-01T21:44:30.025Z,7.80
2019-06-01T21:47:00.903Z,8.10
2019-06-01T21:49:31.577Z,7.10
2019-06-01T21:52:02.268Z,8.03
2019-06-01T21:54:33.023Z,7.90
2019-06-01T21:57:03.706Z,7.78
2019-06-01T21:59:37.135Z,7.45
2019-06-01T22:02:08.034Z,8.25
2019-06-01T22:04:38.813Z,7.47
2019-06-01T22:07:09.529Z,8.35
2019-06-01T22:09:40.278Z,7.70
2019-06-01T22:12:10.911Z,8.08
2019-06-01T22:14:41.938Z,8.13
2019-06-01T22:17:12.697Z,8.25
2019-06-01T22:19:43.508Z,8.58
2019-06-01T22:22:14.139Z,7.97
2019-06-01T22:24:44.857Z,8.25
2019-06-01T22:27:15.537Z,9.03
2019-06-01T22:29:46.287Z,8.83
2019-06-01T22:32:18.296Z,8.75
2019-06-01T22:34:49.036Z,9.37
2019-06-01T22:37:19.809Z,9.60
2019-06-01T22:39:52.186Z,10.00
2019-06-01T22:42:24.204Z,9.73
2019-06-01T22:44:55.010Z,8.98
2019-06-01T22:47:26.601Z,9.38
2019-06-01T22:49:57.433Z,9.08
2019-06-01T22:52:29.149Z,9.43
2019-06-01T22:54:59.967Z,8.73
2019-06-01T22:57:30.667Z,9.93
2019-06-01T23:00:01.755Z,10.53
2019-06-01T23:02:32.509Z,9.58
2019-06-01T23:05:03.215Z,10.53
2019-06-01T23:07:33.976Z,10.72
2019-06-01T23:10:04.945Z,9.18
2019-06-01T23:12:35.718Z,9.83
2019-06-01T23:15:08.517Z,9.85
2019-06-01T23:20:09.314Z,10.65
2019-06-01T23:22:40.111Z,9.78
2019-06-01T23:25:10.794Z,10.50
2019-06-01T23:27:41.464Z,10.40
2019-06-01T23:30:12.116Z,10.32
2019-06-01T23:32:43.020Z,10.85
2019-06-01T23:35:14.099Z,9.83
2019-06-01T23:37:44.746Z,11.03
2019-06-01T23:40:16.850Z,10.03
2019-06-01T23:42:47.560Z,11.70
2019-06-01T23:45:18.442Z,10.85
2019-06-01T23:47:49.128Z,10.28
2019-06-01T23:50:19.959Z,10.45
2019-06-01T23:52:50.597Z,9.85
2019-06-01T23:55:21.231Z,9.80
2019-06-01T23:57:51.907Z,9.58
